createdAt,value
2019-02-11T00:00:35.036Z,87.30
2019-02-11T00:03:03.528Z,87.00
2019-02-11T00:05:31.693Z,87.00
2019-02-11T00:07:59.840Z,87.00
2019-02-11T00:10:28.477Z,86.80
2019-02-11T00:12:56.567Z,86.80
2019-02-11T00:15:24.716Z,86.60
2019-02-11T00:17:52.826Z,86.20
2019-02-11T00:20:20.975Z,86.30
2019-02-11T00:22:49.089Z,85.50
2019-02-11T00:25:17.633Z,84.90
2019-02-11T00:27:45.805Z,85.10
2019-02-11T00:30:14.170Z,84.90
2019-02-11T00:32:42.288Z,84.40
2019-02-11T00:35:10.827Z,84.30
2019-02-11T00:37:38.919Z,84.30
2019-02-11T00:40:07.775Z,84.20
2019-02-11T00:42:35.881Z,84.30
2019-02-11T00:45:04.474Z,84.30
2019-02-11T00:47:32.978Z,84.20
2019-02-11T00:50:01.137Z,84.00
2019-02-11T00:52:29.646Z,83.90
2019-02-11T00:54:57.849Z,83.90
2019-02-11T00:57:26.091Z,83.80
2019-02-11T00:59:54.242Z,85.30
2019-02-11T01:02:22.403Z,85.50
2019-02-11T01:04:50.720Z,86.00
2019-02-11T01:07:18.822Z,86.00
2019-02-11T01:09:47.088Z,85.20
2019-02-11T01:12:15.197Z,85.10
2019-02-11T01:14:43.339Z,84.40
2019-02-11T01:17:12.061Z,85.60
2019-02-11T01:19:40.202Z,85.30
2019-02-11T01:22:08.406Z,86.00
2019-02-11T01:24:36.570Z,86.40
2019-02-11T01:27:04.767Z,87.20
2019-02-11T01:29:32.853Z,87.20
2019-02-11T01:32:01.001Z,88.00
2019-02-11T01:34:29.623Z,88.30
2019-02-11T01:36:58.155Z,88.80
2019-02-11T01:39:26.749Z,88.50
2019-02-11T01:41:54.906Z,89.10
2019-02-11T01:44:23.003Z,89.40
2019-02-11T01:46:51.628Z,90.10
2019-02-11T01:49:19.744Z,90.30
2019-02-11T01:51:47.926Z,90.40
2019-02-11T01:54:16.024Z,90.20
2019-02-11T01:56:44.187Z,90.50
2019-02-11T01:59:12.304Z,90.40
2019-02-11T02:01:40.460Z,90.00
2019-02-11T02:04:09.860Z,89.60
2019-02-11T02:06:38.007Z,89.00
2019-02-11T02:09:06.977Z,88.90
2019-02-11T02:11:35.146Z,88.40
2019-02-11T02:14:03.349Z,88.50
2019-02-11T02:16:31.489Z,88.10
2019-02-11T02:19:00.129Z,88.10
2019-02-11T02:21:28.669Z,87.60
2019-02-11T02:23:56.894Z,87.40
2019-02-11T02:26:25.035Z,87.60
2019-02-11T02:28:53.250Z,87.80
2019-02-11T02:31:21.390Z,87.80
2019-02-11T02:33:49.487Z,87.60
2019-02-11T02:36:17.633Z,87.30
2019-02-11T02:38:45.737Z,88.70
2019-02-11T02:41:13.905Z,87.50
2019-02-11T02:43:42.119Z,87.30
2019-02-11T02:46:10.438Z,87.10
2019-02-11T02:48:38.642Z,87.00
2019-02-11T02:51:07.225Z,86.60
2019-02-11T02:53:35.338Z,86.20
2019-02-11T02:56:03.701Z,86.20
2019-02-11T02:58:31.806Z,85.90
2019-02-11T03:01:00.043Z,85.10
2019-02-11T03:03:28.182Z,85.50
2019-02-11T03:05:56.394Z,85.60
2019-02-11T03:08:24.495Z,85.80
2019-02-11T03:10:52.747Z,85.70
2019-02-11T03:13:20.845Z,85.70
2019-02-11T03:15:48.948Z,85.80
2019-02-11T03:18:17.466Z,85.70
2019-02-11T03:20:45.570Z,85.70
2019-02-11T03:23:13.818Z,85.50
2019-02-11T03:25:42.348Z,86.60
2019-02-11T03:28:10.487Z,85.80
2019-02-11T03:30:38.695Z,86.00
2019-02-11T03:33:06.836Z,86.30
2019-02-11T03:35:34.935Z,86.60
2019-02-11T03:38:03.087Z,86.70
2019-02-11T03:40:31.343Z,87.10
2019-02-11T03:42:59.490Z,86.70
2019-02-11T03:45:28.134Z,86.80
2019-02-11T03:47:56.399Z,86.80
2019-02-11T03:50:24.678Z,86.60
2019-02-11T03:52:52.894Z,86.60
2019-02-11T03:55:21.191Z,86.40
2019-02-11T03:57:49.437Z,86.40
2019-02-11T04:00:17.771Z,86.40
2019-02-11T04:03:04.159Z,85.90
2019-02-11T04:05:32.808Z,86.10
2019-02-11T04:08:01.106Z,85.80
2019-02-11T04:10:29.740Z,85.40
2019-02-11T04:12:57.935Z,85.20
2019-02-11T04:15:26.090Z,84.70
2019-02-11T04:17:54.278Z,84.30
2019-02-11T04:20:22.549Z,84.00
2019-02-11T04:22:51.143Z,83.60
2019-02-11T04:25:19.299Z,83.60
2019-02-11T04:27:47.684Z,83.40
2019-02-11T04:30:15.956Z,83.10
2019-02-11T04:32:44.152Z,83.10
2019-02-11T04:35:12.554Z,82.60
2019-02-11T04:37:40.756Z,82.50
2019-02-11T04:40:09.861Z,82.20
2019-02-11T04:42:38.475Z,82.40
2019-02-11T04:45:07.813Z,82.20
2019-02-11T04:47:36.016Z,82.60
2019-02-11T04:50:05.284Z,82.20
2019-02-11T04:52:33.578Z,82.00
2019-02-11T04:55:01.735Z,81.80
2019-02-11T04:57:30.034Z,81.90
2019-02-11T04:59:58.271Z,82.00
2019-02-11T05:02:26.500Z,81.80
2019-02-11T05:04:55.130Z,82.20
2019-02-11T05:07:23.602Z,82.20
2019-02-11T05:09:52.183Z,82.50
2019-02-11T05:12:20.832Z,82.70
2019-02-11T05:14:49.001Z,82.80
2019-02-11T05:17:17.314Z,83.30
2019-02-11T05:19:45.498Z,83.20
2019-02-11T05:22:13.688Z,83.30
2019-02-11T05:24:41.830Z,84.00
2019-02-11T05:27:10.121Z,83.70
2019-02-11T05:29:38.318Z,83.30
2019-02-11T05:32:06.470Z,83.50
2019-02-11T05:34:34.638Z,83.80
2019-02-11T05:37:03.723Z,83.40
2019-02-11T05:39:32.584Z,82.60
2019-02-11T05:42:00.705Z,82.40
2019-02-11T05:44:28.894Z,81.70
2019-02-11T05:46:57.774Z,81.20
2019-02-11T05:49:26.055Z,81.30
2019-02-11T05:51:54.622Z,81.00
2019-02-11T05:54:22.903Z,81.00
2019-02-11T05:56:51.736Z,81.30
2019-02-11T05:59:20.395Z,79.60
2019-02-11T06:01:48.516Z,79.70
2019-02-11T06:04:17.192Z,79.50
2019-02-11T06:06:45.924Z,79.70
2019-02-11T06:09:14.785Z,79.40
2019-02-11T06:11:43.258Z,79.30
2019-02-11T06:14:11.448Z,79.70
2019-02-11T06:16:39.563Z,79.60
2019-02-11T06:19:08.067Z,80.20
2019-02-11T06:21:36.192Z,80.50
2019-02-11T06:24:05.335Z,80.90
2019-02-11T06:26:34.180Z,81.50
2019-02-11T06:29:02.716Z,82.40
2019-02-11T06:31:31.153Z,82.50
2019-02-11T06:34:00.160Z,82.70
2019-02-11T06:36:29.487Z,83.60
2019-02-11T06:38:57.663Z,83.40
2019-02-11T06:41:26.896Z,83.30
2019-02-11T06:43:55.248Z,83.80
2019-02-11T06:46:23.497Z,84.60
2019-02-11T06:48:51.678Z,84.70
2019-02-11T06:51:19.799Z,85.30
2019-02-11T06:53:48.151Z,85.80
2019-02-11T06:56:16.670Z,85.50
2019-02-11T06:58:45.304Z,85.40
2019-02-11T07:01:14.247Z,85.40
2019-02-11T07:03:42.827Z,85.60
2019-02-11T07:06:11.107Z,85.40
2019-02-11T07:08:39.464Z,85.10
2019-02-11T07:11:07.587Z,84.60
2019-02-11T07:13:36.587Z,85.10
2019-02-11T07:16:05.489Z,84.80
2019-02-11T07:18:37.054Z,84.50
2019-02-11T07:21:04.940Z,84.30
2019-02-11T07:23:33.248Z,84.80
2019-02-11T07:26:01.526Z,85.20
2019-02-11T07:28:30.242Z,85.60
2019-02-11T07:30:59.519Z,85.20
2019-02-11T07:33:27.808Z,85.70
2019-02-11T07:35:55.964Z,85.10
2019-02-11T07:38:24.540Z,85.00
2019-02-11T07:40:52.732Z,84.70
2019-02-11T07:43:43.168Z,84.50
2019-02-11T07:46:33.332Z,84.50
2019-02-11T07:49:01.535Z,84.30
2019-02-11T07:51:29.705Z,84.50
2019-02-11T07:53:58.337Z,84.70
2019-02-11T07:56:27.725Z,84.50
2019-02-11T07:58:56.060Z,84.70
2019-02-11T08:01:24.325Z,84.80
2019-02-11T08:03:52.531Z,85.10
2019-02-11T08:06:20.741Z,85.30
2019-02-11T08:08:48.905Z,85.00
2019-02-11T08:11:17.156Z,85.10
2019-02-11T08:13:45.371Z,84.90
2019-02-11T08:16:13.564Z,84.90
2019-02-11T08:18:58.348Z,85.20
2019-02-11T08:21:26.620Z,84.30
2019-02-11T08:23:54.784Z,82.60
2019-02-11T08:26:23.563Z,80.40
2019-02-11T08:28:51.724Z,79.40
2019-02-11T08:31:20.138Z,78.50
2019-02-11T08:33:50.620Z,78.10
2019-02-11T08:36:18.889Z,76.20
2019-02-11T08:38:47.054Z,75.30
2019-02-11T08:41:20.257Z,74.60
2019-02-11T08:43:48.852Z,74.00
2019-02-11T08:46:19.903Z,73.40
2019-02-11T08:48:48.358Z,71.00
2019-02-11T08:51:16.676Z,70.90
2019-02-11T08:53:46.260Z,70.30
2019-02-11T08:56:14.595Z,70.50
2019-02-11T08:58:45.297Z,69.00
2019-02-11T09:01:13.808Z,68.70
2019-02-11T09:03:42.068Z,68.30
2019-02-11T09:06:10.500Z,67.30
2019-02-11T09:08:38.696Z,67.70
2019-02-11T09:11:07.016Z,67.60
2019-02-11T09:13:35.372Z,67.70
2019-02-11T09:16:03.772Z,67.70
2019-02-11T09:18:33.308Z,66.90
2019-02-11T09:21:01.708Z,66.70
2019-02-11T09:23:29.856Z,67.50
2019-02-11T09:26:00.720Z,66.60
2019-02-11T09:28:28.995Z,66.80
2019-02-11T09:30:57.657Z,65.50
2019-02-11T09:33:26.288Z,65.40
2019-02-11T09:35:54.539Z,64.70
2019-02-11T09:38:22.952Z,62.20
2019-02-11T09:40:51.512Z,61.20
2019-02-11T09:43:19.813Z,60.30
2019-02-11T09:45:48.947Z,59.70
2019-02-11T09:48:17.239Z,60.50
2019-02-11T09:50:48.311Z,60.80
2019-02-11T09:53:17.908Z,60.30
2019-02-11T09:55:46.167Z,61.30
2019-02-11T09:58:14.476Z,59.90
2019-02-11T10:00:42.880Z,58.90
2019-02-11T10:03:11.155Z,59.20
2019-02-11T10:05:39.448Z,58.60
2019-02-11T10:08:08.256Z,58.50
2019-02-11T10:10:36.434Z,58.60
2019-02-11T10:13:04.744Z,58.80
2019-02-11T10:15:33.028Z,58.50
2019-02-11T10:18:01.446Z,57.90
2019-02-11T10:20:30.225Z,57.30
2019-02-11T10:22:58.524Z,57.70
2019-02-11T10:25:27.460Z,56.70
2019-02-11T10:27:58.985Z,58.20
2019-02-11T10:30:27.227Z,58.40
2019-02-11T10:32:55.627Z,56.80
2019-02-11T10:35:23.979Z,57.40
2019-02-11T10:37:54.326Z,55.90
2019-02-11T10:40:22.668Z,56.20
2019-02-11T10:42:51.092Z,55.80
2019-02-11T10:45:19.359Z,55.80
2019-02-11T10:47:47.768Z,56.00
2019-02-11T10:50:16.386Z,55.30
2019-02-11T10:52:47.492Z,55.70
2019-02-11T10:55:16.207Z,54.30
2019-02-11T10:57:45.314Z,55.20
2019-02-11T11:00:16.391Z,54.10
2019-02-11T11:02:45.509Z,53.90
2019-02-11T11:05:14.665Z,54.00
2019-02-11T11:07:43.823Z,53.20
2019-02-11T11:10:21.455Z,52.50
2019-02-11T11:12:50.352Z,53.30
2019-02-11T11:15:20.785Z,53.70
2019-02-11T11:17:49.757Z,53.00
2019-02-11T11:20:20.008Z,53.10
2019-02-11T11:22:48.347Z,52.80
2019-02-11T11:25:17.169Z,52.90
2019-02-11T11:27:45.531Z,51.40
2019-02-11T11:30:15.560Z,50.80
2019-02-11T11:32:44.010Z,50.20
2019-02-11T11:35:14.922Z,49.60
2019-02-11T11:37:43.292Z,50.20
2019-02-11T11:40:13.269Z,50.30
2019-02-11T11:42:41.525Z,50.50
2019-02-11T11:45:12.284Z,49.80
2019-02-11T11:47:40.615Z,49.60
2019-02-11T11:50:09.599Z,50.70
2019-02-11T11:52:38.551Z,50.60
2019-02-11T11:55:09.222Z,49.60
2019-02-11T11:57:37.581Z,50.00
2019-02-11T12:00:15.673Z,48.80
2019-02-11T12:03:00.603Z,49.00
2019-02-11T12:05:15.927Z,48.90
2019-02-11T12:07:44.267Z,48.30
2019-02-11T12:10:12.748Z,48.70
2019-02-11T12:12:41.101Z,47.20
2019-02-11T12:15:12.120Z,47.70
2019-02-11T12:17:40.521Z,47.50
2019-02-11T12:20:10.412Z,47.10
2019-02-11T12:22:38.741Z,47.70
2019-02-11T12:25:09.085Z,47.80
2019-02-11T12:27:37.319Z,47.80
2019-02-11T12:30:07.557Z,48.10
2019-02-11T12:32:36.204Z,48.50
2019-02-11T12:35:05.312Z,47.90
2019-02-11T12:37:33.456Z,47.90
2019-02-11T12:40:01.784Z,48.60
2019-02-11T12:42:30.030Z,48.10
2019-02-11T12:44:58.619Z,48.40
2019-02-11T12:47:27.736Z,47.50
2019-02-11T12:49:58.903Z,48.00
2019-02-11T12:52:27.081Z,47.30
2019-02-11T12:54:55.794Z,48.40
2019-02-11T12:57:24.167Z,49.10
2019-02-11T12:59:52.559Z,47.20
2019-02-11T13:02:20.919Z,46.70
2019-02-11T13:04:49.174Z,47.30
2019-02-11T13:07:17.375Z,48.30
2019-02-11T13:09:45.595Z,47.80
2019-02-11T13:12:13.912Z,49.10
2019-02-11T13:14:42.071Z,47.90
2019-02-11T13:17:15.637Z,46.90
2019-02-11T13:19:40.246Z,47.10
2019-02-11T13:22:09.641Z,47.60
2019-02-11T13:24:37.807Z,48.40
2019-02-11T13:27:06.750Z,47.70
2019-02-11T13:29:35.182Z,48.00
2019-02-11T13:32:03.484Z,48.10
2019-02-11T13:34:31.737Z,48.70
2019-02-11T13:36:59.935Z,47.80
2019-02-11T13:39:28.197Z,46.90
2019-02-11T13:41:56.866Z,46.90
2019-02-11T13:44:29.473Z,47.80
2019-02-11T13:46:57.775Z,48.00
2019-02-11T13:49:26.602Z,48.20
2019-02-11T13:51:55.308Z,47.90
2019-02-11T13:54:23.621Z,47.50
2019-02-11T13:56:53.047Z,47.90
2019-02-11T13:59:21.284Z,48.20
2019-02-11T14:01:52.172Z,47.00
2019-02-11T14:04:22.953Z,48.30
2019-02-11T14:06:55.076Z,48.10
2019-02-11T14:09:25.926Z,47.70
2019-02-11T14:11:54.356Z,47.50
2019-02-11T14:14:28.115Z,47.70
2019-02-11T14:16:56.560Z,47.30
2019-02-11T14:19:30.495Z,47.90
2019-02-11T14:21:58.842Z,46.80
2019-02-11T14:24:27.000Z,47.40
2019-02-11T14:26:55.451Z,47.00
2019-02-11T14:29:24.082Z,46.90
2019-02-11T14:31:52.227Z,46.50
2019-02-11T14:34:20.679Z,46.90
2019-02-11T14:36:49.213Z,46.20
2019-02-11T14:39:18.054Z,46.60
2019-02-11T14:41:46.217Z,46.70
2019-02-11T14:44:16.395Z,47.00
2019-02-11T14:46:45.054Z,47.40
2019-02-11T14:49:13.243Z,47.40
2019-02-11T14:51:41.776Z,47.50
2019-02-11T14:54:10.113Z,47.20
2019-02-11T14:56:38.346Z,47.50
2019-02-11T14:59:06.986Z,47.60
2019-02-11T15:01:35.185Z,46.80
2019-02-11T15:04:03.481Z,48.20
2019-02-11T15:06:33.952Z,48.40
2019-02-11T15:09:02.265Z,48.70
2019-02-11T15:11:30.442Z,47.80
2019-02-11T15:14:00.058Z,47.90
2019-02-11T15:16:28.547Z,48.20
2019-02-11T15:18:57.751Z,48.80
2019-02-11T15:21:26.600Z,49.30
2019-02-11T15:23:57.092Z,49.50
2019-02-11T15:26:25.894Z,48.90
2019-02-11T15:28:56.047Z,48.80
2019-02-11T15:31:24.530Z,48.80
2019-02-11T15:33:52.691Z,48.80
2019-02-11T15:36:20.798Z,48.80
2019-02-11T15:38:48.950Z,48.20
2019-02-11T15:41:17.150Z,48.80
2019-02-11T15:43:47.473Z,48.80
2019-02-11T15:46:15.570Z,49.20
2019-02-11T15:48:43.728Z,48.20
2019-02-11T15:51:13.535Z,48.90
2019-02-11T15:53:42.319Z,48.30
2019-02-11T15:56:10.426Z,49.10
2019-02-11T15:58:39.096Z,49.50
2019-02-11T16:01:07.307Z,49.20
2019-02-11T16:03:36.058Z,50.00
2019-02-11T16:06:10.334Z,49.40
2019-02-11T16:08:34.375Z,49.40
2019-02-11T16:11:02.747Z,49.20
2019-02-11T16:13:31.010Z,49.40
2019-02-11T16:15:59.129Z,49.60
2019-02-11T16:18:27.656Z,49.60
2019-02-11T16:20:56.975Z,50.00
2019-02-11T16:23:25.777Z,49.40
2019-02-11T16:25:55.090Z,50.00
2019-02-11T16:28:23.428Z,50.00
2019-02-11T16:30:51.960Z,50.40
2019-02-11T16:33:20.083Z,50.90
2019-02-11T16:35:48.270Z,50.60
2019-02-11T16:38:18.609Z,51.00
2019-02-11T16:40:49.330Z,50.90
2019-02-11T16:43:18.371Z,50.90
2019-02-11T16:45:46.729Z,52.00
2019-02-11T16:48:14.837Z,51.50
2019-02-11T16:50:43.002Z,51.70
2019-02-11T16:53:11.118Z,52.70
2019-02-11T16:55:39.377Z,51.90
2019-02-11T16:58:07.599Z,51.70
2019-02-11T17:00:46.346Z,51.90
2019-02-11T17:03:14.559Z,51.90
2019-02-11T17:05:45.283Z,52.40
2019-02-11T17:08:14.755Z,52.40
2019-02-11T17:10:43.127Z,52.40
2019-02-11T17:13:11.550Z,52.60
2019-02-11T17:15:40.774Z,52.70
2019-02-11T17:18:08.930Z,52.90
2019-02-11T17:20:37.091Z,52.90
2019-02-11T17:23:05.342Z,53.10
2019-02-11T17:25:34.996Z,53.30
2019-02-11T17:28:03.207Z,53.60
2019-02-11T17:30:31.821Z,53.90
2019-02-11T17:33:00.040Z,53.90
2019-02-11T17:35:28.182Z,54.20
2019-02-11T17:37:56.574Z,54.40
2019-02-11T17:40:25.106Z,54.50
2019-02-11T17:42:53.211Z,54.60
2019-02-11T17:45:23.734Z,55.30
2019-02-11T17:47:52.042Z,55.40
2019-02-11T17:50:20.290Z,55.80
2019-02-11T17:52:51.190Z,55.80
2019-02-11T17:55:19.877Z,55.60
2019-02-11T17:57:48.087Z,56.00
2019-02-11T18:00:25.274Z,56.10
2019-02-11T18:02:53.570Z,56.30
2019-02-11T18:05:21.823Z,56.50
2019-02-11T18:07:49.978Z,56.60
2019-02-11T18:10:18.241Z,57.00
2019-02-11T18:12:46.341Z,57.10
2019-02-11T18:15:14.598Z,57.70
2019-02-11T18:17:43.098Z,57.70
2019-02-11T18:20:11.397Z,58.10
2019-02-11T18:22:41.465Z,58.10
2019-02-11T18:25:09.870Z,58.20
2019-02-11T18:27:38.079Z,58.30
2019-02-11T18:30:06.970Z,58.30
2019-02-11T18:32:35.172Z,58.50
2019-02-11T18:35:04.178Z,58.90
2019-02-11T18:37:32.266Z,59.50
2019-02-11T18:40:02.692Z,59.70
2019-02-11T18:42:30.806Z,59.90
2019-02-11T18:44:58.930Z,60.10
2019-02-11T18:47:30.841Z,60.50
2019-02-11T18:50:00.582Z,61.00
2019-02-11T18:52:28.856Z,60.70
2019-02-11T18:54:59.510Z,60.70
2019-02-11T18:57:28.262Z,61.30
2019-02-11T19:00:06.221Z,61.30
2019-02-11T19:02:35.005Z,61.50
2019-02-11T19:05:03.308Z,61.40
2019-02-11T19:07:31.607Z,61.50
2019-02-11T19:09:59.748Z,61.40
2019-02-11T19:12:28.097Z,61.50
2019-02-11T19:14:56.551Z,61.80
2019-02-11T19:17:25.107Z,61.80
2019-02-11T19:19:53.715Z,61.90
2019-02-11T19:22:22.353Z,62.20
2019-02-11T19:24:50.682Z,62.20
2019-02-11T19:27:18.969Z,62.20
2019-02-11T19:29:47.128Z,62.90
2019-02-11T19:32:15.281Z,62.90
2019-02-11T19:34:43.387Z,62.90
2019-02-11T19:37:12.081Z,62.70
2019-02-11T19:39:40.293Z,63.60
2019-02-11T19:42:08.547Z,62.60
2019-02-11T19:44:36.634Z,62.50
2019-02-11T19:47:05.746Z,62.60
2019-02-11T19:49:34.058Z,62.70
2019-02-11T19:52:02.210Z,62.70
2019-02-11T19:54:30.310Z,62.90
2019-02-11T19:56:59.254Z,64.30
2019-02-11T19:59:27.465Z,64.50
2019-02-11T20:01:55.662Z,65.40
2019-02-11T20:04:23.862Z,65.50
2019-02-11T20:06:52.019Z,65.70
2019-02-11T20:09:20.272Z,65.80
2019-02-11T20:11:48.486Z,66.30
2019-02-11T20:14:16.690Z,66.60
2019-02-11T20:16:44.846Z,67.00
2019-02-11T20:19:13.067Z,67.40
2019-02-11T20:21:41.339Z,67.60
2019-02-11T20:24:09.437Z,67.90
2019-02-11T20:26:37.684Z,69.00
2019-02-11T20:29:05.889Z,69.40
2019-02-11T20:31:34.034Z,70.00
2019-02-11T20:34:02.135Z,69.90
2019-02-11T20:36:30.286Z,69.90
2019-02-11T20:38:59.401Z,69.80
2019-02-11T20:41:27.559Z,70.20
2019-02-11T20:43:55.750Z,71.10
2019-02-11T20:46:23.862Z,71.50
2019-02-11T20:48:52.495Z,72.10
2019-02-11T20:51:20.596Z,72.90
2019-02-11T20:53:48.737Z,73.70
2019-02-11T20:56:17.256Z,73.70
2019-02-11T20:58:45.503Z,73.40
2019-02-11T21:01:13.700Z,73.70
2019-02-11T21:03:42.238Z,74.40
2019-02-11T21:06:10.535Z,74.80
2019-02-11T21:08:38.688Z,74.60
2019-02-11T21:11:06.941Z,74.00
2019-02-11T21:13:35.078Z,73.60
2019-02-11T21:16:03.390Z,74.20
2019-02-11T21:18:31.536Z,73.90
2019-02-11T21:20:59.628Z,73.70
2019-02-11T21:23:28.163Z,74.20
2019-02-11T21:25:56.362Z,74.40
2019-02-11T21:28:24.518Z,74.90
2019-02-11T21:30:52.760Z,75.20
2019-02-11T21:33:21.012Z,75.00
2019-02-11T21:35:49.210Z,74.90
2019-02-11T21:38:17.806Z,74.70
2019-02-11T21:40:45.893Z,74.00
2019-02-11T21:43:14.163Z,73.60
2019-02-11T21:45:42.366Z,73.30
2019-02-11T21:48:10.941Z,73.50
2019-02-11T21:50:39.033Z,73.10
2019-02-11T21:53:07.229Z,73.10
2019-02-11T21:55:36.344Z,72.40
2019-02-11T21:58:04.558Z,71.90
2019-02-11T22:00:32.859Z,71.40
2019-02-11T22:03:01.021Z,71.30
2019-02-11T22:05:29.116Z,70.90
2019-02-11T22:07:57.278Z,70.80
2019-02-11T22:10:25.775Z,70.60
2019-02-11T22:12:53.975Z,70.40
2019-02-11T22:15:22.116Z,70.60
2019-02-11T22:17:50.314Z,70.70
2019-02-11T22:20:18.662Z,70.70
2019-02-11T22:22:47.314Z,70.70
2019-02-11T22:25:15.510Z,70.80
2019-02-11T22:27:44.355Z,71.00
2019-02-11T22:30:14.734Z,70.90
2019-02-11T22:32:43.427Z,71.00
2019-02-11T22:35:11.750Z,71.10
2019-02-11T22:37:40.384Z,71.90
2019-02-11T22:40:09.143Z,72.70
2019-02-11T22:42:37.491Z,72.90
2019-02-11T22:45:06.923Z,74.00
2019-02-11T22:47:35.031Z,74.40
2019-02-11T22:50:03.845Z,74.20
2019-02-11T22:52:31.955Z,75.00
2019-02-11T22:55:00.523Z,75.30
2019-02-11T22:57:28.618Z,75.60
2019-02-11T22:59:56.767Z,75.40
2019-02-11T23:02:25.118Z,76.10
2019-02-11T23:04:53.266Z,76.40
2019-02-11T23:07:21.365Z,76.60
2019-02-11T23:09:49.955Z,76.70
2019-02-11T23:12:18.133Z,77.70
2019-02-11T23:14:46.374Z,77.90
2019-02-11T23:17:14.478Z,78.30
2019-02-11T23:19:43.333Z,78.10
2019-02-11T23:22:11.533Z,78.30
2019-02-11T23:24:39.694Z,79.00
2019-02-11T23:27:07.794Z,78.70
2019-02-11T23:29:35.958Z,78.80
2019-02-11T23:32:04.365Z,79.10
2019-02-11T23:34:33.026Z,79.60
2019-02-11T23:37:01.314Z,79.80
2019-02-11T23:39:29.541Z,80.00
2019-02-11T23:41:57.646Z,80.30
2019-02-11T23:44:25.802Z,81.30
2019-02-11T23:46:53.902Z,81.10
2019-02-11T23:49:22.063Z,81.00
2019-02-11T23:51:50.156Z,80.10
2019-02-11T23:54:18.303Z,79.50
2019-02-11T23:56:46.979Z,79.40
2019-02-11T23:59:15.579Z,79.20
